KAXV

Neil Armstrong Airport

Wapakoneta, Ohio, USA
METAR KAXV 191455Z AUTO 20011KT 10SM CLR M03/M08 A3007 RMK AO2
Observed Flight Rules
Jan-19 @ 14:55 UTC (32 minutes ago) Visual Flight Rules
Wind Visibility Clouds
200° at 11 knots 10 miles
  • Clear skies
Temperatures Readings
Current -3°C / 27°F
Dewpoint -8°C / 18°F
Humidity 69%
Altimeter 30.07" Hg
Pressure 1018 hPa
Elevation 279
METAR KAXV 191455Z AUTO 20011KT 10SM CLR M03/M08 A3007 RMK AO2
Observed Flight Rules
Jan-19 @ 14:55 UTC
(32 minutes ago)
VFR
Wind Visibility
200° at 11 knots 10 miles
Clouds
  • Clear skies
Temperature Dewpoint
-3°C / 27°F -8°C / 18°F
Humidity Altimeter Pressure
69% 30.07" Hg 1018 hPa